Hlavní strana
METAR-TAF:

METAR-TAF

Letiště :

Letiště Cabinda

Cabinda, Angola

zeměpisná šířka: 5-35-50S, zeměpisná délka: 12-11-17E, výška: 20 m

Aktuální stav počasí

Zpráva byla vytvořena před 1 hodinou a 59 minutami, v 12:00 UTC
Západojihozápadní vítr 6 kt
Teplota 31°C
Vlhkost vzduchu 75%
Tlak 1011 hPa
Viditelnost 10 km a více
Polojasno ve výšce 2000 ft

METAR: FNCA 281200Z 25006KT 9999 SCT020 31/26 Q1011

Čas: 14:59 (13:59 UTC)

Předpověď počasí

Zpráva byla vytvořena před 2 hodinami a 59 minutami, v 11:00 UTC
Předpověď platná od 28 v 12 UTC do 28 v 24 UTC
Západojihozápadní vítr 5 kt
Viditelnost: 9000 m
Polojasno ve výšce 2000 ft
Skoro jasno ve výšce 2300 ft, Cumulonimbus.
bouřka
Změna
od 28 v 13 UTC do 28 v 15 UTC
Viditelnost: 8000 m
slabý déšť

TAF: FNCA 281100Z 2812/2824 25005KT 9000 TS SCT020 FEW023CB BECMG 2813/2815 8000 -RA

Stav a předpovědi počasí z více než 4 000 letišť (zprávy METAR a TAF).

Červené a žluté tečky na mapě představují dostupné meteorologické stanice.

Když kurzor umístíte na tečku, zobrazí se název stanice.

Pak kliknutím zobrazíte stav a předpověď počasí.

Chcete-li změnit mapu, kliknutím na zelené tlačítko se znaménkem +mapu přiblížíte, kliknutím na zelené tlačítko se znaménkem – mapu oddálíte a kliknutím na zelené šipky přejdete na sousední mapy.


METAR-TAF: